Time;durP1;ratioP1;P1;durP2;ratioP2;P2;SDS_P1;SDS_P2;PMS_P1;PMS_P2;Temp;Humidity;BMP_temperature;BMP_pressure;BME280_temperature;BME280_humidity;BME280_pressure;Samples;Min_cycle;Max_cycle;Signal;HPM_P1;HPM_P2
2021/04/04 00:01:56;;;;;;;6.93;3.38;;;8.50;45.20;;;;;;5048032;28;20084;-68
2021/04/04 00:04:22;;;;;;;11.27;4.20;;;8.50;45.30;;;;;;5048987;28;20500;-68
2021/04/04 00:06:49;;;;;;;7.68;3.17;;;8.60;45.20;;;;;;5050980;28;20130;-68
2021/04/04 00:09:19;;;;;;;5.85;3.17;;;8.60;45.30;;;;;;5042311;28;20176;-68
2021/04/04 00:11:47;;;;;;;7.18;3.08;;;8.40;45.90;;;;;;5049928;28;20080;-68
2021/04/04 00:14:14;;;;;;;7.07;3.00;;;8.30;46.60;;;;;;5051222;28;20457;-68
2021/04/04 00:16:40;;;;;;;6.47;2.95;;;8.50;46.50;;;;;;5047693;28;20072;-68
2021/04/04 00:19:07;;;;;;;8.90;3.40;;;8.30;46.70;;;;;;5048071;28;20056;-67
2021/04/04 00:21:33;;;;;;;6.95;3.10;;;8.30;46.90;;;;;;5048675;28;20455;-68
2021/04/04 00:24:00;;;;;;;4.45;2.80;;;8.20;47.00;;;;;;5050268;28;20469;-68
2021/04/04 00:26:26;;;;;;;6.32;3.33;;;8.30;47.10;;;;;;5048325;28;20454;-68
2021/04/04 00:28:52;;;;;;;6.82;3.17;;;8.30;47.30;;;;;;5048052;28;20076;-68
2021/04/04 00:31:19;;;;;;;6.35;3.03;;;8.30;47.20;;;;;;5047163;28;20152;-67
2021/04/04 00:33:45;;;;;;;11.23;3.40;;;8.20;47.10;;;;;;5049261;28;20048;-69
2021/04/04 00:36:12;;;;;;;7.90;3.38;;;8.30;47.10;;;;;;5047915;28;20128;-68
2021/04/04 00:38:38;;;;;;;12.25;3.70;;;8.20;47.10;;;;;;5050015;28;20094;-68
2021/04/04 00:41:04;;;;;;;6.60;2.88;;;8.30;47.00;;;;;;5047952;28;20126;-68
2021/04/04 00:43:31;;;;;;;8.52;3.20;;;8.40;46.70;;;;;;5049335;28;20076;-68
2021/04/04 00:45:57;;;;;;;8.63;3.30;;;8.50;46.70;;;;;;5049735;28;21367;-69
2021/04/04 00:48:23;;;;;;;6.25;3.00;;;8.60;46.50;;;;;;5045802;28;20157;-67
2021/04/04 00:50:50;;;;;;;10.18;3.13;;;8.50;46.60;;;;;;5047020;28;20576;-68
2021/04/04 00:53:16;;;;;;;7.53;2.88;;;8.50;46.70;;;;;;5048787;28;20077;-68
2021/04/04 00:55:42;;;;;;;8.13;3.10;;;8.30;46.90;;;;;;5046758;28;20110;-68
2021/04/04 00:58:10;;;;;;;6.80;2.58;;;8.20;47.00;;;;;;5049113;28;20044;-68
2021/04/04 01:00:36;;;;;;;6.10;2.92;;;8.30;46.70;;;;;;5044412;28;20049;-68
2021/04/04 01:03:03;;;;;;;7.38;3.22;;;8.30;46.70;;;;;;5047955;28;20106;-68
2021/04/04 01:05:34;;;;;;;6.50;3.15;;;8.30;46.90;;;;;;5050178;28;20746;-68
2021/04/04 01:08:00;;;;;;;;;;;8.10;47.20;;;;;;5044111;28;20144;-68
2021/04/04 01:10:32;;;;;;;5.93;3.03;;;8.00;47.70;;;;;;5048496;28;19963;-68
2021/04/04 01:13:02;;;;;;;11.38;3.60;;;8.00;47.70;;;;;;5047518;28;20102;-68
2021/04/04 01:15:30;;;;;;;8.27;3.03;;;8.10;47.40;;;;;;5046282;28;20604;-69
2021/04/04 01:18:01;;;;;;;7.72;3.00;;;8.00;47.80;;;;;;5047995;28;20120;-68
2021/04/04 01:20:47;;;;;;;7.70;3.33;;;8.00;47.80;;;;;;5047553;28;20585;-69
2021/04/04 01:23:32;;;;;;;8.38;3.15;;;8.10;47.60;;;;;;5045620;28;20049;-69
2021/04/04 01:26:09;;;;;;;5.82;3.17;;;8.10;47.80;;;;;;5046583;28;20049;-69
2021/04/04 01:28:39;;;;;;;10.68;3.25;;;8.10;48.00;;;;;;5048953;28;20122;-69
2021/04/04 01:31:07;;;;;;;;;;;8.00;48.00;;;;;;5045117;28;20345;-69
2021/04/04 01:33:35;;;;;;;6.90;2.88;;;8.10;48.00;;;;;;5048778;28;20410;-69
2021/04/04 01:36:04;;;;;;;10.68;3.28;;;8.20;47.80;;;;;;5046720;28;20140;-69
2021/04/04 01:38:37;;;;;;;12.20;3.67;;;8.20;48.00;;;;;;5046557;28;20159;-68
2021/04/04 01:41:15;;;;;;;8.38;2.95;;;8.20;48.00;;;;;;5048334;28;20052;-69
2021/04/04 01:43:43;;;;;;;7.45;3.00;;;8.20;48.20;;;;;;5047324;28;20480;-69
2021/04/04 01:46:10;;;;;;;7.90;3.13;;;8.10;48.40;;;;;;5044880;28;20148;-69
2021/04/04 01:48:38;;;;;;;8.93;3.17;;;7.90;48.80;;;;;;5047924;28;20053;-70
2021/04/04 01:51:05;;;;;;;5.97;2.92;;;7.80;49.30;;;;;;5044867;28;20143;-70
2021/04/04 01:53:32;;;;;;;10.18;3.63;;;7.80;49.60;;;;;;5044440;28;20136;-69
2021/04/04 01:55:59;;;;;;;7.05;3.00;;;7.80;49.50;;;;;;5048015;28;20112;-69
2021/04/04 01:58:26;;;;;;;6.70;3.30;;;7.70;49.70;;;;;;5045361;28;20073;-69
2021/04/04 02:00:53;;;;;;;7.55;3.28;;;7.70;49.90;;;;;;5045403;28;20072;-69
2021/04/04 02:03:22;;;;;;;9.48;3.58;;;7.80;49.80;;;;;;5049959;28;20052;-68
2021/04/04 02:05:51;;;;;;;11.63;3.53;;;7.70;49.90;;;;;;5046013;28;20421;-69
2021/04/04 02:08:19;;;;;;;10.73;4.07;;;7.70;49.90;;;;;;5047446;28;20566;-69
2021/04/04 02:10:45;;;;;;;7.40;3.22;;;7.70;49.80;;;;;;5046894;28;20044;-69
2021/04/04 02:13:13;;;;;;;8.38;3.15;;;7.90;49.50;;;;;;5045351;28;20123;-69
2021/04/04 02:15:41;;;;;;;7.07;3.05;;;7.60;49.50;;;;;;5046983;28;20052;-69
2021/04/04 02:18:09;;;;;;;9.27;2.83;;;7.50;49.90;;;;;;5047462;28;20063;-69
2021/04/04 02:20:37;;;;;;;5.53;3.13;;;7.50;49.70;;;;;;5047751;28;20068;-69
2021/04/04 02:23:08;;;;;;;10.05;3.17;;;7.40;50.00;;;;;;5048232;28;20080;-69
2021/04/04 02:25:34;;;;;;;7.13;3.35;;;7.30;49.90;;;;;;5044794;28;20052;-69
2021/04/04 02:28:01;;;;;;;10.98;3.30;;;7.50;50.20;;;;;;5401795;22;20190;-72
2021/04/04 02:30:28;;;;;;;7.75;3.38;;;7.60;49.50;;;;;;4996610;28;20046;-72
2021/04/04 02:33:02;;;;;;;7.57;3.00;;;7.50;49.50;;;;;;5018481;28;20078;-72
2021/04/04 02:35:34;;;;;;;6.22;3.00;;;7.30;50.10;;;;;;5004900;28;20147;-72
2021/04/04 02:38:14;;;;;;;9.60;3.33;;;7.30;50.00;;;;;;5003378;28;20109;-72
2021/04/04 02:40:44;;;;;;;8.00;2.88;;;7.30;50.50;;;;;;5002520;28;20100;-72
2021/04/04 02:43:16;;;;;;;6.80;3.17;;;7.30;50.00;;;;;;5004464;28;20054;-72
2021/04/04 02:45:45;;;;;;;9.60;3.25;;;7.30;50.30;;;;;;5004115;28;20138;-72
2021/04/04 02:48:17;;;;;;;10.02;3.17;;;7.20;50.40;;;;;;5003581;28;20495;-73
2021/04/04 02:50:47;;;;;;;8.10;3.22;;;7.40;50.30;;;;;;4998750;28;20096;-73
2021/04/04 02:53:15;;;;;;;6.18;3.22;;;7.30;50.80;;;;;;4990408;28;20497;-73
2021/04/04 02:55:42;;;;;;;11.68;3.20;;;7.20;51.00;;;;;;5004420;28;20108;-73
2021/04/04 02:58:10;;;;;;;6.60;3.17;;;7.20;51.60;;;;;;5004860;28;20069;-73
2021/04/04 03:00:40;;;;;;;8.35;3.20;;;7.30;51.20;;;;;;4998208;28;20062;-73
2021/04/04 03:03:10;;;;;;;5.80;3.22;;;7.30;51.00;;;;;;5013809;28;20058;-73
2021/04/04 03:05:37;;;;;;;8.48;2.90;;;7.20;51.10;;;;;;5007501;28;20508;-72
2021/04/04 03:08:07;;;;;;;7.95;3.25;;;7.30;51.00;;;;;;5021001;28;20135;-72
2021/04/04 03:10:34;;;;;;;5.53;2.60;;;7.20;50.90;;;;;;5006632;28;20054;-73
2021/04/04 03:13:02;;;;;;;6.78;2.80;;;7.20;51.00;;;;;;5005781;28;20046;-73
2021/04/04 03:15:29;;;;;;;5.82;2.92;;;7.20;51.00;;;;;;5006080;28;20487;-72
2021/04/04 03:17:57;;;;;;;9.75;3.25;;;7.20;51.10;;;;;;5008515;28;20097;-73
2021/04/04 03:20:25;;;;;;;8.77;2.70;;;7.20;51.10;;;;;;5006984;28;20054;-73
2021/04/04 03:22:53;;;;;;;9.00;3.47;;;7.10;50.90;;;;;;5007470;28;20819;-72
2021/04/04 03:25:20;;;;;;;7.38;3.30;;;7.10;51.80;;;;;;5006788;28;20100;-72
2021/04/04 03:27:48;;;;;;;9.63;3.28;;;7.30;51.70;;;;;;5006097;28;20108;-72
2021/04/04 03:30:35;;;;;;;7.40;3.33;;;7.10;52.10;;;;;;5006362;28;20590;-73
2021/04/04 03:33:06;;;;;;;10.90;3.20;;;7.00;52.20;;;;;;5007896;28;20046;-73
2021/04/04 03:35:34;;;;;;;8.32;3.20;;;7.10;52.20;;;;;;5021284;28;20132;-72
2021/04/04 03:38:03;;;;;;;6.50;2.90;;;7.20;52.10;;;;;;5018243;28;20049;-72
2021/04/04 03:40:30;;;;;;;8.07;3.45;;;7.20;52.00;;;;;;5006533;28;20697;-72
2021/04/04 03:42:59;;;;;;;7.10;3.25;;;7.40;52.20;;;;;;5005869;28;20505;-72
2021/04/04 03:45:26;;;;;;;7.60;3.35;;;7.00;52.30;;;;;;5006747;28;20572;-72
2021/04/04 03:47:54;;;;;;;7.13;3.17;;;6.90;52.50;;;;;;5006992;28;20069;-72
2021/04/04 03:50:21;;;;;;;10.65;3.60;;;6.90;52.20;;;;;;5005272;28;20145;-72
2021/04/04 03:52:49;;;;;;;7.63;3.05;;;7.00;51.90;;;;;;5008046;28;20054;-71
2021/04/04 03:55:21;;;;;;;6.85;3.42;;;7.00;51.60;;;;;;5005676;28;20100;-71
2021/04/04 03:57:49;;;;;;;7.22;3.03;;;6.90;51.70;;;;;;5020558;28;20045;-71
2021/04/04 04:00:19;;;;;;;7.90;3.45;;;6.80;51.90;;;;;;5007005;28;20089;-72
2021/04/04 04:02:48;;;;;;;6.85;2.92;;;6.80;52.00;;;;;;5021084;28;20089;-71
2021/04/04 04:05:17;;;;;;;11.07;2.97;;;6.90;51.70;;;;;;5006887;28;20145;-71
2021/04/04 04:07:45;;;;;;;8.30;3.00;;;7.00;51.50;;;;;;5019171;28;20104;-72
2021/04/04 04:10:13;;;;;;;6.57;2.95;;;6.90;51.20;;;;;;5004097;28;20049;-71
2021/04/04 04:12:41;;;;;;;6.78;2.90;;;6.90;51.60;;;;;;5005060;28;20116;-71
2021/04/04 04:15:10;;;;;;;9.20;3.22;;;6.90;51.40;;;;;;5005498;28;20053;-71
2021/04/04 04:17:37;;;;;;;11.55;3.15;;;6.60;51.90;;;;;;5005604;28;20077;-71
2021/04/04 04:20:05;;;;;;;7.55;3.17;;;6.80;51.90;;;;;;5006776;28;20062;-70
2021/04/04 04:22:31;;;;;;;7.72;3.15;;;6.70;51.80;;;;;;5018981;28;20082;-71
2021/04/04 04:24:59;;;;;;;11.55;3.10;;;6.80;51.80;;;;;;5005450;28;20061;-72
2021/04/04 04:27:26;;;;;;;8.35;3.00;;;6.60;52.00;;;;;;5006786;28;20089;-72
2021/04/04 04:29:54;;;;;;;7.40;3.50;;;6.50;52.60;;;;;;5004155;28;20087;-72
2021/04/04 04:32:24;;;;;;;7.55;3.10;;;6.50;52.60;;;;;;5005432;28;20053;-71
2021/04/04 04:34:53;;;;;;;9.15;3.45;;;6.50;53.40;;;;;;5006020;28;20088;-72
2021/04/04 04:37:20;;;;;;;11.05;3.25;;;6.70;52.60;;;;;;5004515;28;20058;-71
2021/04/04 04:39:48;;;;;;;8.73;2.67;;;6.50;53.10;;;;;;5020430;28;20128;-71
2021/04/04 04:42:16;;;;;;;6.82;3.30;;;6.60;52.90;;;;;;5005586;28;20402;-72
2021/04/04 04:44:45;;;;;;;9.57;3.10;;;6.60;52.40;;;;;;5005590;28;20147;-71
2021/04/04 04:47:12;;;;;;;6.25;2.75;;;6.60;52.80;;;;;;5005970;28;20149;-71
2021/04/04 04:49:43;;;;;;;7.00;3.03;;;6.60;53.60;;;;;;5004324;28;20057;-71
2021/04/04 04:52:12;;;;;;;7.97;3.17;;;6.50;53.10;;;;;;5004160;28;20050;-71
2021/04/04 04:54:42;;;;;;;9.98;2.88;;;6.50;53.10;;;;;;5007027;28;20064;-71
2021/04/04 04:57:12;;;;;;;7.05;2.80;;;6.50;52.90;;;;;;5004513;28;20426;-72
2021/04/04 04:59:38;;;;;;;8.50;2.95;;;6.60;53.00;;;;;;5004881;28;20085;-70
2021/04/04 05:02:08;;;;;;;7.03;2.95;;;6.60;52.90;;;;;;5018901;28;20089;-71
2021/04/04 05:04:34;;;;;;;6.78;2.78;;;6.50;53.20;;;;;;5004946;28;20058;-71
2021/04/04 05:07:01;;;;;;;10.32;2.75;;;6.60;53.80;;;;;;5021126;28;20556;-71
2021/04/04 05:09:32;;;;;;;10.20;3.03;;;6.40;53.40;;;;;;5004069;28;20053;-71
2021/04/04 05:11:59;;;;;;;9.48;3.10;;;6.60;53.40;;;;;;5018627;28;20049;-71
2021/04/04 05:14:26;;;;;;;6.88;3.10;;;6.50;53.70;;;;;;5006472;28;20080;-71
2021/04/04 05:16:53;;;;;;;8.23;3.13;;;6.50;54.50;;;;;;5004160;28;20132;-71
2021/04/04 05:19:22;;;;;;;11.82;3.33;;;6.60;54.40;;;;;;5004533;28;20567;-71
2021/04/04 05:21:49;;;;;;;9.52;3.10;;;6.50;54.00;;;;;;5016719;28;20136;-72
2021/04/04 05:24:16;;;;;;;8.85;3.28;;;6.40;54.10;;;;;;5003471;28;20682;-72
2021/04/04 05:26:46;;;;;;;11.68;3.28;;;6.50;54.10;;;;;;5003397;28;20054;-71
2021/04/04 05:29:15;;;;;;;11.38;3.00;;;6.50;54.30;;;;;;5004164;28;21296;-71
2021/04/04 05:31:50;;;;;;;9.93;3.57;;;6.50;54.30;;;;;;5003928;28;20053;-72
2021/04/04 05:34:22;;;;;;;8.02;3.60;;;6.60;54.20;;;;;;5005334;28;20073;-71
2021/04/04 05:37:03;;;;;;;7.35;3.35;;;6.50;54.30;;;;;;5005186;28;20134;-72
2021/04/04 05:39:32;;;;;;;7.25;3.28;;;6.60;54.50;;;;;;5004030;28;20559;-70
2021/04/04 05:42:01;;;;;;;11.27;3.70;;;6.60;54.30;;;;;;5005461;28;20425;-72
2021/04/04 05:44:53;;;;;;;9.10;3.65;;;6.70;54.40;;;;;;5004597;28;20460;-71
2021/04/04 05:47:23;;;;;;;13.55;3.83;;;6.70;54.50;;;;;;5004101;28;20053;-70
2021/04/04 05:50:05;;;;;;;;;;;6.80;54.90;;;;;;5005266;28;20058;-71
2021/04/04 05:52:31;;;;;;;10.13;4.10;;;7.60;54.00;;;;;;5005123;28;20008;-71
2021/04/04 05:55:17;;;;;;;12.55;3.67;;;7.40;53.40;;;;;;5004443;28;20761;-71
2021/04/04 05:57:57;;;;;;;10.85;4.35;;;7.80;52.90;;;;;;5005031;28;20077;-71
2021/04/04 06:00:27;;;;;;;12.02;4.10;;;7.90;52.90;;;;;;5003589;28;20057;-71
2021/04/04 06:03:15;;;;;;;16.00;5.05;;;8.10;52.50;;;;;;5004640;28;20123;-73
2021/04/04 06:06:13;;;;;;;11.90;4.03;;;8.30;52.10;;;;;;5005467;28;20105;-72
2021/04/04 06:09:13;;;;;;;7.90;3.72;;;8.60;51.60;;;;;;5004980;28;20080;-71
2021/04/04 06:11:52;;;;;;;;;;;8.90;50.70;;;;;;5003210;28;20081;-71
2021/04/04 06:14:47;;;;;;;12.90;4.65;;;9.90;49.70;;;;;;5005181;28;19931;-71
2021/04/04 06:17:37;;;;;;;13.55;3.97;;;10.90;46.70;;;;;;5004487;28;20050;-71
2021/04/04 06:20:10;;;;;;;16.23;4.78;;;10.10;46.80;;;;;;5004578;28;20053;-71
2021/04/04 06:23:01;;;;;;;22.73;4.32;;;9.70;48.80;;;;;;5003576;28;20061;-72
2021/04/04 06:25:49;;;;;;;8.88;4.53;;;8.70;50.10;;;;;;5004779;28;20062;-70
2021/04/04 06:28:23;;;;;;;19.38;4.40;;;8.00;51.60;;;;;;5004765;28;20057;-72
2021/04/04 06:30:58;;;;;;;11.65;4.40;;;8.90;51.40;;;;;;5002210;28;20151;-72
2021/04/04 06:33:27;;;;;;;11.48;4.15;;;9.40;49.80;;;;;;5004646;28;20050;-72
2021/04/04 06:36:02;;;;;;;10.27;4.13;;;9.70;48.80;;;;;;5005111;28;20137;-71
2021/04/04 06:38:50;;;;;;;11.82;4.35;;;9.20;49.80;;;;;;5005591;28;20053;-71
2021/04/04 06:41:20;;;;;;;12.07;4.95;;;9.50;49.60;;;;;;5018555;28;20179;-72
2021/04/04 06:43:52;;;;;;;13.13;4.53;;;8.90;49.90;;;;;;5008431;28;20519;-72
2021/04/04 06:46:24;;;;;;;10.73;4.80;;;8.50;51.00;;;;;;5019842;28;20081;-71
2021/04/04 06:49:19;;;;;;;13.52;5.07;;;9.00;50.70;;;;;;5008029;28;20089;-71
2021/04/04 06:52:00;;;;;;;12.05;4.15;;;9.60;49.20;;;;;;5008161;28;20126;-71
2021/04/04 06:54:54;;;;;;;12.07;4.85;;;9.70;49.50;;;;;;5018412;28;20054;-71
2021/04/04 06:57:43;;;;;;;12.77;4.70;;;10.30;47.20;;;;;;5019341;28;20753;-72
2021/04/04 07:00:30;;;;;;;18.98;4.93;;;9.70;48.90;;;;;;5006938;28;20054;-70
2021/04/04 07:02:56;;;;;;;8.93;4.60;;;9.40;49.70;;;;;;5007915;28;20086;-70
2021/04/04 07:05:27;;;;;;;15.50;4.80;;;9.10;50.00;;;;;;5007443;28;20064;-71
2021/04/04 07:08:36;;;;;;;12.93;4.35;;;10.10;48.80;;;;;;5008685;28;20572;-71
2021/04/04 07:11:24;;;;;;;8.68;4.53;;;11.80;45.10;;;;;;4996872;28;20496;-71
2021/04/04 07:14:22;;;;;;;17.25;5.10;;;12.90;43.10;;;;;;5020048;28;20085;-72
2021/04/04 07:17:14;;;;;;;16.08;5.45;;;11.20;44.00;;;;;;5006721;28;20111;-71
2021/04/04 07:20:22;;;;;;;19.92;5.13;;;10.70;46.40;;;;;;5006623;28;20043;-72
2021/04/04 07:23:15;;;;;;;13.43;4.90;;;10.80;46.20;;;;;;5007965;28;20816;-71
2021/04/04 07:25:59;;;;;;;12.68;4.88;;;11.70;45.80;;;;;;5009449;28;20070;-73
2021/04/04 07:28:48;;;;;;;13.80;4.85;;;11.60;45.20;;;;;;5006578;28;20054;-72
2021/04/04 07:31:17;;;;;;;11.20;5.05;;;11.30;45.50;;;;;;5006398;28;20594;-72
2021/04/04 07:33:47;;;;;;;13.10;4.65;;;11.20;45.80;;;;;;5018753;28;21306;-72
2021/04/04 07:36:38;;;;;;;9.40;4.78;;;10.80;46.40;;;;;;5007638;28;20053;-72
2021/04/04 07:39:49;;;;;;;12.35;4.85;;;11.40;46.60;;;;;;5007968;28;20049;-72
2021/04/04 07:43:05;;;;;;;13.40;4.90;;;10.80;46.20;;;;;;5014206;28;20058;-72
2021/04/04 07:45:46;;;;;;;20.55;5.28;;;10.40;47.30;;;;;;5004688;28;20165;-72
2021/04/04 07:48:25;;;;;;;13.35;5.00;;;9.90;49.00;;;;;;5021908;28;20054;-72
2021/04/04 07:51:15;;;;;;;10.07;4.63;;;11.10;47.20;;;;;;5006203;28;20058;-72
2021/04/04 07:53:56;;;;;;;13.85;4.80;;;12.80;43.50;;;;;;5006945;28;20077;-72
2021/04/04 07:56:51;;;;;;;12.02;4.75;;;11.40;44.90;;;;;;5005751;28;20046;-72
2021/04/04 07:59:41;;;;;;;14.55;4.57;;;11.50;45.80;;;;;;5006171;28;20112;-73
2021/04/04 08:02:28;;;;;;;14.75;5.47;;;10.70;46.70;;;;;;5011253;28;20496;-73
2021/04/04 08:04:57;;;;;;;15.05;5.40;;;11.00;46.50;;;;;;5006443;28;20064;-73
2021/04/04 08:07:33;;;;;;;12.95;5.35;;;11.20;46.40;;;;;;5006669;28;20132;-73
2021/04/04 08:10:12;;;;;;;16.30;5.70;;;11.70;46.00;;;;;;5006396;28;20064;-72
2021/04/04 08:13:14;;;;;;;16.45;5.72;;;12.30;45.00;;;;;;5004989;28;20078;-72
2021/04/04 08:15:45;;;;;;;11.07;5.25;;;12.20;44.90;;;;;;5004216;28;20892;-73
2021/04/04 08:18:12;;;;;;;14.55;5.05;;;11.50;45.60;;;;;;5006932;28;20129;-73
2021/04/04 08:20:49;;;;;;;15.00;5.45;;;11.90;45.70;;;;;;5006249;28;20046;-73
2021/04/04 08:23:31;;;;;;;20.63;5.63;;;12.20;45.50;;;;;;5005232;28;20138;-74
2021/04/04 08:26:01;;;;;;;18.25;5.45;;;11.50;45.70;;;;;;5022127;28;20140;-72
2021/04/04 08:28:48;;;;;;;17.55;4.93;;;11.60;46.80;;;;;;5005551;28;20062;-72
2021/04/04 08:31:32;;;;;;;20.45;6.18;;;12.20;46.00;;;;;;5004917;28;20057;-71
2021/04/04 08:34:22;;;;;;;13.68;5.45;;;12.40;44.70;;;;;;5005959;28;20140;-73
2021/04/04 08:36:52;;;;;;;19.00;6.05;;;12.70;44.90;;;;;;5005274;28;20100;-71
2021/04/04 08:39:22;;;;;;;14.57;5.80;;;12.80;44.40;;;;;;5004468;28;20050;-72
2021/04/04 08:41:48;;;;;;;19.55;6.32;;;12.90;43.90;;;;;;5006351;28;20089;-72
2021/04/04 08:44:29;;;;;;;11.95;6.03;;;13.20;43.90;;;;;;5006631;28;20049;-71
2021/04/04 08:47:04;;;;;;;13.25;5.97;;;13.00;43.70;;;;;;5005342;28;20054;-72
2021/04/04 08:49:31;;;;;;;15.60;5.50;;;13.60;42.80;;;;;;5006096;28;20101;-72
2021/04/04 08:52:13;;;;;;;18.05;6.28;;;14.40;42.60;;;;;;5020867;28;20050;-72
2021/04/04 08:54:43;;;;;;;12.48;5.72;;;15.30;41.20;;;;;;5005067;28;20045;-72
2021/04/04 08:57:09;;;;;;;14.45;5.63;;;15.70;38.90;;;;;;5005570;28;20097;-72
2021/04/04 08:59:36;;;;;;;14.20;5.70;;;14.80;39.50;;;;;;5020255;28;20046;-73
2021/04/04 09:02:06;;;;;;;19.80;6.28;;;13.70;41.70;;;;;;5004421;28;20050;-73
2021/04/04 09:04:40;;;;;;;22.27;6.63;;;13.10;42.80;;;;;;5021681;28;20132;-71
2021/04/04 09:07:08;;;;;;;15.18;6.50;;;12.40;44.40;;;;;;5005068;28;20064;-72
2021/04/04 09:09:38;;;;;;;16.58;6.53;;;12.10;45.30;;;;;;5004644;28;20081;-71
2021/04/04 09:12:05;;;;;;;;;;;12.30;45.20;;;;;;5004867;28;20176;-70
2021/04/04 09:14:38;;;;;;;13.57;6.45;;;12.10;45.10;;;;;;5004469;28;20416;-72
2021/04/04 09:17:16;;;;;;;16.90;6.20;;;13.10;44.20;;;;;;5004535;28;20051;-70
2021/04/04 09:19:46;;;;;;;18.45;6.57;;;12.60;44.30;;;;;;5015370;28;20054;-71
2021/04/04 09:22:21;;;;;;;13.95;6.10;;;12.60;44.30;;;;;;5015461;28;20125;-71
2021/04/04 09:24:53;;;;;;;18.20;6.80;;;12.00;45.70;;;;;;5004010;28;20136;-70
2021/04/04 09:27:21;;;;;;;17.33;7.22;;;12.70;44.80;;;;;;5005481;28;20129;-71
2021/04/04 09:29:52;;;;;;;22.17;6.57;;;13.40;43.70;;;;;;5003756;28;20054;-71
2021/04/04 09:32:45;;;;;;;18.90;6.45;;;13.80;42.60;;;;;;5014567;28;20077;-72
2021/04/04 09:35:20;;;;;;;15.77;6.07;;;15.00;40.30;;;;;;5004408;28;20108;-71
2021/04/04 09:37:47;;;;;;;16.92;6.78;;;15.50;40.10;;;;;;5003437;28;20495;-71
2021/04/04 09:40:17;;;;;;;17.70;6.75;;;16.70;39.50;;;;;;5003129;28;20477;-72
2021/04/04 09:42:44;;;;;;;15.75;6.82;;;16.90;38.00;;;;;;5004979;28;20472;-71
2021/04/04 09:45:19;;;;;;;16.30;6.72;;;17.80;37.30;;;;;;5003949;28;20078;-71
2021/04/04 09:47:46;;;;;;;18.63;7.05;;;16.90;37.60;;;;;;5005418;28;20054;-72
2021/04/04 09:50:30;;;;;;;15.38;6.32;;;17.90;36.30;;;;;;5003349;28;20157;-73
2021/04/04 09:52:57;;;;;;;17.23;6.63;;;19.90;35.30;;;;;;5002187;28;20489;-72
2021/04/04 09:55:25;;;;;;;22.00;7.18;;;19.90;33.70;;;;;;5020671;28;20057;-71
2021/04/04 09:58:03;;;;;;;16.67;6.28;;;18.20;34.60;;;;;;5004260;28;20054;-71
2021/04/04 10:00:31;;;;;;;18.77;6.45;;;15.80;37.70;;;;;;5003227;28;20046;-71
2021/04/04 10:03:08;;;;;;;17.08;6.82;;;15.00;39.80;;;;;;5021130;28;20050;-70
2021/04/04 10:05:39;;;;;;;15.48;6.32;;;15.60;39.60;;;;;;5018494;28;20108;-71
2021/04/04 10:08:11;;;;;;;18.80;7.25;;;16.40;38.40;;;;;;5004151;28;20077;-72
2021/04/04 10:10:39;;;;;;;19.17;7.38;;;15.30;38.80;;;;;;5004340;28;20875;-71
2021/04/04 10:13:05;;;;;;;16.35;6.32;;;16.30;38.70;;;;;;5001522;28;20053;-72
2021/04/04 10:15:45;;;;;;;15.10;6.43;;;16.20;39.10;;;;;;5004126;28;20104;-70
2021/04/04 10:18:13;;;;;;;17.30;6.55;;;15.70;39.00;;;;;;5004871;28;20473;-70
2021/04/04 10:20:51;;;;;;;13.85;5.80;;;15.60;37.80;;;;;;5003102;28;20755;-71
2021/04/04 10:23:19;;;;;;;17.17;6.13;;;16.10;38.20;;;;;;5004101;28;20058;-71
2021/04/04 10:25:59;;;;;;;15.00;6.72;;;16.60;37.80;;;;;;5003863;28;20482;-71
2021/04/04 10:28:48;;;;;;;14.68;6.35;;;16.40;37.30;;;;;;5014838;28;20157;-71
2021/04/04 10:31:16;;;;;;;14.80;5.93;;;17.10;37.10;;;;;;5001631;28;20092;-72
2021/04/04 10:33:43;;;;;;;14.10;6.05;;;15.70;37.20;;;;;;5003993;28;20053;-71
2021/04/04 10:36:24;;;;;;;14.82;5.95;;;15.70;38.10;;;;;;5003817;28;20057;-71
2021/04/04 10:38:52;;;;;;;13.93;6.05;;;15.60;37.50;;;;;;5003977;28;20084;-71
2021/04/04 10:41:35;;;;;;;15.93;6.30;;;15.40;37.70;;;;;;5003460;28;20046;-71
2021/04/04 10:44:01;;;;;;;17.02;6.18;;;15.40;38.20;;;;;;5003468;28;20037;-72
2021/04/04 10:46:35;;;;;;;18.55;5.90;;;14.90;38.80;;;;;;5018446;28;20919;-71
2021/04/04 10:49:04;;;;;;;14.27;5.35;;;15.30;38.20;;;;;;5003710;28;20138;-72
2021/04/04 10:51:31;;;;;;;16.35;5.90;;;16.90;35.90;;;;;;5014521;28;20069;-72
2021/04/04 10:54:01;;;;;;;17.75;6.10;;;18.10;34.80;;;;;;5004170;28;20077;-72
2021/04/04 10:56:29;;;;;;;16.40;5.85;;;18.40;34.40;;;;;;5003326;28;20124;-72
2021/04/04 10:58:56;;;;;;;16.80;6.25;;;17.20;33.70;;;;;;5018690;28;20057;-72
2021/04/04 11:01:24;;;;;;;16.80;6.35;;;15.30;36.60;;;;;;5003966;28;20129;-71
2021/04/04 11:03:51;;;;;;;14.98;6.55;;;15.00;37.50;;;;;;5002531;28;21618;-72
2021/04/04 11:06:17;;;;;;;13.98;5.95;;;15.00;37.20;;;;;;5004208;28;20085;-72
2021/04/04 11:08:44;;;;;;;14.90;5.68;;;15.40;37.30;;;;;;5004083;28;20706;-72
2021/04/04 11:11:14;;;;;;;14.65;7.03;;;16.20;36.10;;;;;;5016928;28;20049;-72
2021/04/04 11:13:45;;;;;;;17.70;6.88;;;16.10;36.70;;;;;;5013140;28;20157;-71
2021/04/04 11:16:17;;;;;;;15.75;6.45;;;17.00;35.70;;;;;;5003571;28;20109;-71
2021/04/04 11:18:50;;;;;;;15.55;6.47;;;15.60;37.00;;;;;;5002942;28;20069;-70
2021/04/04 11:21:30;;;;;;;15.05;6.53;;;16.90;36.30;;;;;;5003220;28;20094;-71
2021/04/04 11:23:57;;;;;;;16.80;6.47;;;16.70;36.40;;;;;;5003146;28;20146;-71
2021/04/04 11:26:27;;;;;;;14.88;6.43;;;17.70;35.30;;;;;;5020951;28;20058;-71
2021/04/04 11:29:12;;;;;;;16.02;7.47;;;16.50;35.60;;;;;;5007653;28;20058;-70
2021/04/04 11:31:41;;;;;;;15.30;6.53;;;15.50;38.00;;;;;;5006027;28;20096;-71
2021/04/04 11:34:24;;;;;;;17.67;7.03;;;16.90;36.60;;;;;;5006591;28;20144;-72
2021/04/04 11:36:50;;;;;;;15.95;6.90;;;16.90;35.40;;;;;;5007304;28;20141;-72
2021/04/04 11:39:17;;;;;;;17.92;6.72;;;16.00;36.70;;;;;;5005926;28;20057;-72
2021/04/04 11:41:52;;;;;;;18.20;6.45;;;16.20;37.20;;;;;;5022065;28;20125;-72
2021/04/04 11:44:31;;;;;;;13.32;5.75;;;17.50;35.30;;;;;;5018062;28;20078;-72
2021/04/04 11:47:00;;;;;;;19.45;6.38;;;20.00;32.20;;;;;;5006638;28;20116;-72
2021/04/04 11:49:41;;;;;;;16.67;7.13;;;19.00;31.90;;;;;;5006327;28;20201;-72
2021/04/04 11:52:08;;;;;;;21.90;6.53;;;19.30;32.90;;;;;;5017699;28;20050;-73
2021/04/04 11:54:41;;;;;;;11.07;5.78;;;19.20;32.50;;;;;;5005399;28;20137;-72
2021/04/04 11:57:08;;;;;;;11.63;6.35;;;18.80;31.70;;;;;;5006547;28;20092;-72
2021/04/04 11:59:34;;;;;;;11.10;4.75;;;19.30;31.60;;;;;;5006675;28;20109;-72
2021/04/04 12:02:01;;;;;;;14.70;6.22;;;20.00;29.80;;;;;;5005369;28;20053;-72
2021/04/04 12:04:33;;;;;;;16.13;6.22;;;19.30;30.50;;;;;;5021870;28;20120;-72
2021/04/04 12:07:07;;;;;;;14.73;6.38;;;19.10;31.60;;;;;;5006175;28;20619;-73
2021/04/04 12:09:34;;;;;;;10.38;6.50;;;19.80;30.40;;;;;;5005776;28;20124;-72
2021/04/04 12:12:02;;;;;;;17.10;7.60;;;20.20;31.10;;;;;;5004935;28;20478;-71
2021/04/04 12:14:29;;;;;;;17.95;7.82;;;19.30;31.30;;;;;;5019230;28;20137;-71
2021/04/04 12:16:56;;;;;;;17.10;7.38;;;18.70;32.50;;;;;;5007155;28;20049;-71
2021/04/04 12:19:30;;;;;;;18.33;7.15;;;19.00;32.60;;;;;;5005032;28;20088;-71
2021/04/04 12:22:00;;;;;;;17.05;6.93;;;18.50;33.50;;;;;;5006937;28;20286;-72
2021/04/04 12:24:39;;;;;;;;;;;19.30;32.50;;;;;;5004630;28;20062;-71
2021/04/04 12:27:05;;;;;;;18.45;8.60;;;18.60;32.10;;;;;;5005528;28;19995;-71
2021/04/04 12:29:46;;;;;;;16.52;7.45;;;17.40;34.00;;;;;;5004601;28;20057;-71
2021/04/04 12:32:22;;;;;;;21.70;7.80;;;18.90;33.40;;;;;;5005132;28;21690;-72
2021/04/04 12:34:51;;;;;;;18.10;7.93;;;19.10;32.10;;;;;;5006492;28;20057;-72
2021/04/04 12:37:21;;;;;;;22.60;7.93;;;17.20;34.00;;;;;;5005648;28;20050;-70
2021/04/04 12:39:55;;;;;;;15.65;7.03;;;16.20;34.90;;;;;;5004686;28;20058;-71
2021/04/04 12:42:28;;;;;;;17.60;8.02;;;16.20;35.90;;;;;;5005782;28;20124;-70
2021/04/04 12:44:54;;;;;;;16.85;7.95;;;16.80;34.50;;;;;;5017839;28;20161;-71
2021/04/04 12:47:26;;;;;;;18.25;8.50;;;16.60;36.70;;;;;;5004175;28;20085;-72
2021/04/04 12:49:54;;;;;;;17.95;7.80;;;16.70;35.20;;;;;;5004441;28;20053;-71
2021/04/04 12:52:41;;;;;;;23.08;8.77;;;16.70;36.20;;;;;;5003522;28;20135;-70
2021/04/04 12:55:19;;;;;;;16.10;7.68;;;18.20;36.20;;;;;;5004817;28;20057;-70
2021/04/04 12:57:49;;;;;;;16.55;8.30;;;17.90;34.30;;;;;;5006550;28;20152;-71
2021/04/04 13:00:32;;;;;;;18.88;7.43;;;17.30;34.80;;;;;;5004189;28;20104;-72
2021/04/04 13:03:09;;;;;;;17.20;6.95;;;18.40;33.80;;;;;;5005087;28;20057;-72
2021/04/04 13:05:44;;;;;;;11.90;6.88;;;20.00;32.40;;;;;;5016301;28;20137;-72
2021/04/04 13:08:14;;;;;;;17.58;7.47;;;19.70;31.60;;;;;;5005157;28;20085;-72
2021/04/04 13:10:41;;;;;;;;;;;20.70;30.90;;;;;;5020039;28;20089;-72
2021/04/04 13:13:19;;;;;;;22.10;6.65;;;21.10;30.00;;;;;;5004701;28;20439;-72
2021/04/04 13:15:47;;;;;;;15.55;7.15;;;21.60;30.20;;;;;;5003567;28;20053;-72
2021/04/04 13:18:31;;;;;;;15.55;7.63;;;21.30;29.80;;;;;;5005517;28;20049;-73